createdAt,value
2019-06-10T00:00:21.814Z,0.00
2019-06-10T00:01:21.374Z,0.00
2019-06-10T00:02:21.382Z,0.00
2019-06-10T00:03:20.757Z,0.00
2019-06-10T00:04:22.142Z,0.00
2019-06-10T00:05:21.639Z,0.00
2019-06-10T00:06:21.002Z,0.00
2019-06-10T00:07:21.077Z,0.00
2019-06-10T00:08:20.902Z,0.00
2019-06-10T00:09:21.140Z,0.00
2019-06-10T00:10:21.454Z,0.00
2019-06-10T00:11:21.213Z,0.00
2019-06-10T00:12:20.983Z,0.00
2019-06-10T00:13:20.975Z,0.00
2019-06-10T00:14:21.213Z,0.00
2019-06-10T00:15:21.335Z,0.00
2019-06-10T00:16:20.862Z,0.00
2019-06-10T00:17:21.360Z,0.00
2019-06-10T00:18:35.524Z,0.00
2019-06-10T00:19:21.690Z,0.00
2019-06-10T00:20:21.477Z,0.00
2019-06-10T00:21:21.585Z,0.00
2019-06-10T00:22:21.425Z,0.00
2019-06-10T00:23:21.264Z,0.00
2019-06-10T00:24:21.013Z,0.00
2019-06-10T00:25:21.010Z,0.00
2019-06-10T00:26:21.459Z,0.00
2019-06-10T00:27:21.450Z,0.00
2019-06-10T00:28:18.917Z,0.00
2019-06-10T00:29:18.845Z,0.00
2019-06-10T00:30:20.814Z,0.00
2019-06-10T00:31:20.770Z,0.00
2019-06-10T00:32:21.304Z,0.00
2019-06-10T00:33:18.577Z,0.00
2019-06-10T00:34:20.668Z,0.00
2019-06-10T00:35:20.955Z,0.00
2019-06-10T00:36:18.371Z,0.00
2019-06-10T00:37:20.549Z,0.00
2019-06-10T00:38:18.238Z,0.00
2019-06-10T00:39:18.164Z,0.00
2019-06-10T00:40:18.115Z,0.00
2019-06-10T00:41:18.037Z,0.00
2019-06-10T00:42:17.965Z,0.00
2019-06-10T00:43:17.897Z,0.00
2019-06-10T00:44:17.835Z,0.00
2019-06-10T00:45:18.116Z,0.00
2019-06-10T00:46:17.693Z,0.00
2019-06-10T00:47:17.628Z,0.00
2019-06-10T00:48:28.299Z,0.00
2019-06-10T00:49:17.488Z,0.00
2019-06-10T00:50:17.421Z,0.00
2019-06-10T00:51:17.353Z,0.00
2019-06-10T00:52:17.287Z,0.00
2019-06-10T00:53:17.238Z,0.00
2019-06-10T00:54:17.149Z,0.00
2019-06-10T00:55:17.081Z,0.00
2019-06-10T00:56:17.013Z,0.00
2019-06-10T00:57:16.948Z,0.00
2019-06-10T00:58:16.873Z,0.00
2019-06-10T00:59:16.820Z,0.00
2019-06-10T01:00:25.185Z,0.00
2019-06-10T01:01:16.679Z,0.00
2019-06-10T01:02:16.601Z,0.00
2019-06-10T01:03:16.540Z,0.00
2019-06-10T01:04:16.676Z,0.00
2019-06-10T01:05:16.452Z,0.00
2019-06-10T01:06:16.337Z,0.00
2019-06-10T01:07:16.264Z,0.00
2019-06-10T01:08:16.198Z,0.00
2019-06-10T01:09:16.127Z,0.00
2019-06-10T01:10:16.064Z,0.00
2019-06-10T01:11:21.285Z,0.00
2019-06-10T01:12:15.925Z,0.00
2019-06-10T01:13:15.861Z,0.00
2019-06-10T01:14:15.790Z,0.00
2019-06-10T01:15:15.719Z,0.00
2019-06-10T01:16:15.706Z,0.00
2019-06-10T01:17:15.687Z,0.00
2019-06-10T01:18:33.602Z,0.00
2019-06-10T01:19:15.970Z,0.00
2019-06-10T01:20:16.110Z,0.00
2019-06-10T01:21:15.588Z,0.00
2019-06-10T01:22:15.984Z,0.00
2019-06-10T01:23:15.700Z,0.00
2019-06-10T01:24:15.107Z,0.00
2019-06-10T01:25:15.133Z,0.00
2019-06-10T01:26:16.430Z,0.00
2019-06-10T01:27:15.169Z,0.00
2019-06-10T01:28:16.869Z,0.00
2019-06-10T01:29:15.598Z,0.00
2019-06-10T01:30:20.622Z,0.00
2019-06-10T01:31:20.476Z,0.00
2019-06-10T01:32:15.047Z,0.00
2019-06-10T01:33:16.046Z,0.00
2019-06-10T01:34:15.156Z,0.00
2019-06-10T01:35:15.733Z,0.00
2019-06-10T01:36:16.470Z,0.00
2019-06-10T01:37:14.831Z,0.00
2019-06-10T01:38:16.318Z,0.00
2019-06-10T01:39:15.201Z,0.00
2019-06-10T01:40:16.332Z,0.00
2019-06-10T01:41:15.257Z,0.00
2019-06-10T01:42:14.411Z,0.00
2019-06-10T01:43:16.764Z,0.00
2019-06-10T01:44:14.694Z,0.00
2019-06-10T01:45:14.670Z,0.00
2019-06-10T01:46:14.722Z,0.00
2019-06-10T01:47:14.658Z,0.00
2019-06-10T01:48:15.277Z,0.00
2019-06-10T01:49:14.847Z,0.00
2019-06-10T01:50:15.933Z,0.00
2019-06-10T01:51:14.558Z,0.00
2019-06-10T01:52:15.086Z,0.00
2019-06-10T01:53:15.664Z,0.00
2019-06-10T01:54:14.938Z,0.00
2019-06-10T01:55:14.977Z,0.00
2019-06-10T01:56:15.177Z,0.00
2019-06-10T01:57:14.184Z,0.00
2019-06-10T01:58:14.426Z,0.00
2019-06-10T01:59:15.090Z,0.00
2019-06-10T02:00:17.173Z,0.00
2019-06-10T02:01:15.443Z,0.00
2019-06-10T02:02:15.727Z,0.00
2019-06-10T02:03:16.243Z,0.00
2019-06-10T02:04:14.899Z,0.00
2019-06-10T02:05:14.545Z,0.00
2019-06-10T02:06:16.012Z,0.00
2019-06-10T02:07:15.528Z,0.00
2019-06-10T02:08:14.526Z,0.00
2019-06-10T02:09:15.043Z,0.00
2019-06-10T02:10:15.621Z,0.00
2019-06-10T02:11:14.413Z,0.00
2019-06-10T02:12:14.569Z,0.00
2019-06-10T02:13:13.333Z,0.00
2019-06-10T02:14:14.686Z,0.00
2019-06-10T02:15:12.584Z,0.00
2019-06-10T02:16:14.101Z,0.00
2019-06-10T02:17:13.078Z,0.00
2019-06-10T02:18:13.306Z,0.00
2019-06-10T02:19:13.982Z,0.00
2019-06-10T02:20:14.867Z,0.00
2019-06-10T02:21:14.541Z,0.00
2019-06-10T02:22:13.657Z,0.00
2019-06-10T02:23:13.930Z,0.00
2019-06-10T02:24:12.761Z,0.00
2019-06-10T02:25:11.960Z,0.00
2019-06-10T02:26:11.894Z,0.00
2019-06-10T02:27:12.911Z,0.00
2019-06-10T02:28:13.044Z,0.00
2019-06-10T02:29:12.506Z,0.00
2019-06-10T02:30:18.982Z,0.00
2019-06-10T02:31:14.248Z,0.00
2019-06-10T02:32:14.580Z,0.00
2019-06-10T02:33:12.744Z,0.00
2019-06-10T02:34:13.284Z,0.00
2019-06-10T02:35:15.494Z,0.00
2019-06-10T02:36:13.910Z,0.00
2019-06-10T02:37:13.627Z,0.00
2019-06-10T02:38:10.038Z,0.00
2019-06-10T02:39:09.982Z,0.00
2019-06-10T02:40:09.907Z,0.00
2019-06-10T02:41:09.839Z,0.00
2019-06-10T02:42:13.111Z,0.00
2019-06-10T02:43:09.698Z,0.00
2019-06-10T02:44:09.633Z,0.00
2019-06-10T02:45:09.567Z,0.00
2019-06-10T02:46:09.495Z,0.00
2019-06-10T02:47:09.420Z,0.00
2019-06-10T02:48:09.353Z,0.00
2019-06-10T02:49:23.297Z,0.00
2019-06-10T02:50:09.524Z,0.00
2019-06-10T02:51:09.148Z,0.00
2019-06-10T02:52:09.077Z,0.00
2019-06-10T02:53:09.009Z,0.00
2019-06-10T02:54:08.943Z,0.00
2019-06-10T02:55:08.872Z,0.00
2019-06-10T02:56:08.806Z,0.00
2019-06-10T02:57:08.736Z,0.00
2019-06-10T02:58:08.662Z,0.00
2019-06-10T02:59:08.600Z,0.00
2019-06-10T03:00:17.013Z,0.00
2019-06-10T03:01:08.461Z,0.00
2019-06-10T03:02:08.390Z,0.00
2019-06-10T03:03:08.334Z,0.00
2019-06-10T03:04:08.250Z,0.00
2019-06-10T03:05:08.180Z,0.00
2019-06-10T03:06:08.931Z,0.00
2019-06-10T03:07:08.050Z,0.00
2019-06-10T03:08:07.980Z,0.00
2019-06-10T03:09:07.918Z,0.00
2019-06-10T03:10:07.842Z,0.00
2019-06-10T03:11:07.772Z,0.00
2019-06-10T03:12:07.704Z,0.00
2019-06-10T03:13:07.633Z,0.00
2019-06-10T03:14:07.561Z,0.00
2019-06-10T03:15:07.493Z,0.00
2019-06-10T03:16:07.430Z,0.00
2019-06-10T03:17:07.357Z,0.00
2019-06-10T03:18:07.289Z,0.00
2019-06-10T03:19:07.240Z,0.00
2019-06-10T03:20:07.147Z,0.00
2019-06-10T03:21:07.083Z,0.00
2019-06-10T03:22:07.014Z,0.00
2019-06-10T03:23:06.946Z,0.00
2019-06-10T03:24:06.876Z,0.00
2019-06-10T03:25:06.816Z,0.00
2019-06-10T03:26:06.735Z,0.00
2019-06-10T03:27:06.671Z,0.00
2019-06-10T03:28:06.600Z,0.00
2019-06-10T03:29:06.533Z,0.00
2019-06-10T03:30:15.821Z,0.00
2019-06-10T03:31:06.516Z,0.00
2019-06-10T03:32:06.347Z,0.00
2019-06-10T03:33:06.261Z,0.00
2019-06-10T03:34:06.190Z,0.00
2019-06-10T03:35:06.189Z,0.00
2019-06-10T03:36:06.050Z,0.00
2019-06-10T03:37:05.982Z,0.00
2019-06-10T03:38:05.915Z,0.00
2019-06-10T03:39:05.845Z,0.00
2019-06-10T03:40:05.771Z,0.00
2019-06-10T03:41:05.705Z,0.00
2019-06-10T03:42:05.641Z,0.00
2019-06-10T03:43:05.570Z,0.00
2019-06-10T03:44:05.504Z,0.00
2019-06-10T03:45:08.296Z,0.00
2019-06-10T03:46:05.359Z,0.00
2019-06-10T03:47:05.291Z,0.00
2019-06-10T03:48:05.226Z,0.00
2019-06-10T03:49:05.158Z,0.00
2019-06-10T03:50:05.091Z,0.00
2019-06-10T03:51:05.023Z,0.00
2019-06-10T03:52:04.950Z,0.00
2019-06-10T03:53:04.877Z,0.00
2019-06-10T03:54:04.813Z,0.00
2019-06-10T03:55:04.741Z,0.00
2019-06-10T03:56:04.673Z,0.00
2019-06-10T03:57:04.605Z,0.00
2019-06-10T03:58:04.539Z,0.00
2019-06-10T03:59:04.468Z,0.00
2019-06-10T04:00:10.655Z,0.00
2019-06-10T04:01:04.327Z,0.00
2019-06-10T04:02:04.262Z,0.00
2019-06-10T04:03:04.199Z,0.00
2019-06-10T04:04:04.124Z,0.00
2019-06-10T04:05:04.055Z,4.00
2019-06-10T04:06:03.992Z,4.00
2019-06-10T04:07:04.134Z,0.00
2019-06-10T04:08:03.850Z,4.00
2019-06-10T04:09:03.778Z,4.00
2019-06-10T04:10:03.703Z,4.00
2019-06-10T04:11:03.633Z,4.00
2019-06-10T04:12:03.570Z,4.00
2019-06-10T04:13:03.500Z,8.00
2019-06-10T04:14:03.427Z,8.00
2019-06-10T04:15:03.381Z,8.00
2019-06-10T04:16:03.302Z,8.00
2019-06-10T04:17:03.226Z,16.00
2019-06-10T04:18:03.909Z,16.00
2019-06-10T04:19:03.086Z,16.00
2019-06-10T04:20:11.466Z,20.00
2019-06-10T04:22:36.984Z,24.00
2019-06-10T04:23:36.878Z,28.00
2019-06-10T04:25:32.463Z,32.00
2019-06-10T04:26:32.745Z,40.00
2019-06-10T04:28:28.694Z,44.00
2019-06-10T04:29:27.734Z,52.00
2019-06-10T04:31:23.769Z,60.00
2019-06-10T04:32:23.162Z,68.00
2019-06-10T04:34:18.323Z,84.00
2019-06-10T04:35:18.330Z,88.00
2019-06-10T04:37:12.900Z,104.00
2019-06-10T04:38:13.195Z,116.00
2019-06-10T04:40:08.113Z,132.00
2019-06-10T04:41:08.015Z,140.00
2019-06-10T04:43:03.286Z,160.00
2019-06-10T04:44:03.201Z,164.00
2019-06-10T04:45:58.490Z,180.00
2019-06-10T04:46:58.387Z,196.00
2019-06-10T04:48:53.662Z,212.00
2019-06-10T04:49:53.589Z,224.00
2019-06-10T04:51:48.878Z,248.00
2019-06-10T04:52:48.775Z,256.00
2019-06-10T04:54:44.041Z,280.00
2019-06-10T04:55:43.954Z,296.00
2019-06-10T04:57:39.242Z,320.00
2019-06-10T04:58:39.145Z,332.00
2019-06-10T05:00:34.424Z,360.00
2019-06-10T05:01:34.338Z,380.00
2019-06-10T05:03:29.649Z,408.00
2019-06-10T05:04:30.590Z,468.00
2019-06-10T05:06:26.856Z,536.00
2019-06-10T05:07:27.069Z,568.00
2019-06-10T05:09:23.747Z,492.00
2019-06-10T05:10:21.134Z,512.00
2019-06-10T05:12:15.176Z,556.00
2019-06-10T05:13:15.090Z,740.00
2019-06-10T05:15:12.481Z,820.00
2019-06-10T05:16:12.519Z,892.00
2019-06-10T05:18:05.574Z,888.00
2019-06-10T05:19:05.490Z,848.00
2019-06-10T05:21:02.872Z,780.00
2019-06-10T05:22:02.961Z,680.00
2019-06-10T05:23:55.941Z,700.00
2019-06-10T05:24:55.866Z,716.00
2019-06-10T05:26:52.666Z,748.00
2019-06-10T05:27:52.291Z,864.00
2019-06-10T05:29:47.166Z,1304.00
2019-06-10T05:30:47.081Z,1468.00
2019-06-10T05:32:43.398Z,1620.00
2019-06-10T05:33:43.157Z,1676.00
2019-06-10T05:34:43.732Z,1736.00
2019-06-10T05:35:43.024Z,1792.00
2019-06-10T05:36:43.756Z,1848.00
2019-06-10T05:37:42.888Z,1908.00
2019-06-10T05:38:43.621Z,1960.00
2019-06-10T05:39:42.750Z,2004.00
2019-06-10T05:40:42.852Z,2056.00
2019-06-10T05:41:43.302Z,2108.00
2019-06-10T05:42:42.756Z,2160.00
2019-06-10T05:43:43.026Z,2208.00
2019-06-10T05:44:43.090Z,2260.00
2019-06-10T05:45:42.487Z,2324.00
2019-06-10T05:46:43.544Z,2376.00
2019-06-10T05:47:42.837Z,2424.00
2019-06-10T05:48:43.706Z,2476.00
2019-06-10T05:49:43.114Z,2524.00
2019-06-10T05:50:42.800Z,2580.00
2019-06-10T05:51:42.507Z,2620.00
2019-06-10T05:52:42.765Z,2652.00
2019-06-10T05:53:42.632Z,2676.00
2019-06-10T05:54:43.091Z,2708.00
2019-06-10T05:55:42.749Z,2748.00
2019-06-10T05:56:43.283Z,2784.00
2019-06-10T05:57:42.878Z,2828.00
2019-06-10T05:58:43.611Z,2860.00
2019-06-10T05:59:43.262Z,2900.00
2019-06-10T06:00:42.857Z,2948.00
2019-06-10T06:01:43.096Z,2984.00
2019-06-10T06:02:43.262Z,3028.00
2019-06-10T06:03:43.635Z,3052.00
2019-06-10T06:04:42.852Z,3088.00
2019-06-10T06:05:43.249Z,3136.00
2019-06-10T06:06:42.530Z,3172.00
2019-06-10T06:07:42.322Z,3224.00
2019-06-10T06:08:42.945Z,3268.00
2019-06-10T06:09:42.723Z,3316.00
2019-06-10T06:10:42.364Z,3356.00
2019-06-10T06:11:42.843Z,3404.00
2019-06-10T06:12:42.440Z,3460.00
2019-06-10T06:13:42.975Z,3504.00
2019-06-10T06:14:42.458Z,3556.00
2019-06-10T06:15:42.451Z,3604.00
2019-06-10T06:16:42.984Z,3656.00
2019-06-10T06:17:40.164Z,3720.00
2019-06-10T06:18:42.247Z,3780.00
2019-06-10T06:19:40.035Z,3836.00
2019-06-10T06:20:39.954Z,3868.00
2019-06-10T06:21:44.525Z,3868.00
2019-06-10T06:22:39.827Z,3892.00
2019-06-10T06:23:39.760Z,3936.00
2019-06-10T06:24:39.684Z,3960.00
2019-06-10T06:25:43.479Z,3976.00
2019-06-10T06:26:39.855Z,4008.00
2019-06-10T06:27:41.944Z,4040.00
2019-06-10T06:28:39.413Z,4076.00
2019-06-10T06:29:39.348Z,4108.00
2019-06-10T06:30:39.280Z,4128.00
2019-06-10T06:31:39.342Z,4152.00
2019-06-10T06:32:39.150Z,4176.00
2019-06-10T06:33:39.934Z,4188.00
2019-06-10T06:34:39.014Z,4216.00
2019-06-10T06:35:42.827Z,4248.00
2019-06-10T06:36:38.888Z,4268.00
2019-06-10T06:37:39.699Z,4300.00
2019-06-10T06:38:38.761Z,4332.00
2019-06-10T06:39:38.669Z,4392.00
2019-06-10T06:40:38.932Z,4440.00
2019-06-10T06:41:39.087Z,4484.00
2019-06-10T06:42:38.472Z,4532.00
2019-06-10T06:43:41.998Z,4584.00
2019-06-10T06:44:39.495Z,4656.00
2019-06-10T06:45:38.983Z,4540.00
2019-06-10T06:46:39.612Z,4528.00
2019-06-10T06:47:39.110Z,4540.00
2019-06-10T06:48:40.301Z,4560.00
2019-06-10T06:49:38.649Z,4568.00
2019-06-10T06:50:57.257Z,4580.00
2019-06-10T06:51:49.534Z,4592.00
2019-06-10T06:53:12.598Z,4596.00
2019-06-10T06:53:45.205Z,4608.00
2019-06-10T06:54:38.146Z,4612.00
2019-06-10T06:55:38.412Z,4624.00
2019-06-10T06:56:38.982Z,4672.00
2019-06-10T06:57:38.965Z,4688.00
2019-06-10T06:58:38.663Z,4660.00
2019-06-10T06:59:38.725Z,4672.00
2019-06-10T07:00:53.994Z,4704.00
2019-06-10T07:01:39.178Z,4732.00
2019-06-10T07:02:37.586Z,4732.00
2019-06-10T07:03:38.617Z,4752.00
2019-06-10T07:04:37.514Z,4752.00
2019-06-10T07:05:37.592Z,4792.00
2019-06-10T07:06:37.439Z,4812.00
2019-06-10T07:07:37.120Z,4812.00
2019-06-10T07:08:38.109Z,4820.00
2019-06-10T07:09:37.405Z,4836.00
2019-06-10T07:10:37.373Z,4856.00
2019-06-10T07:11:38.370Z,4868.00
2019-06-10T07:12:37.870Z,4888.00
2019-06-10T07:13:38.816Z,4896.00
2019-06-10T07:14:38.819Z,4916.00
2019-06-10T07:15:38.884Z,4928.00
2019-06-10T07:16:38.981Z,4932.00
2019-06-10T07:17:37.802Z,4956.00
2019-06-10T07:18:40.939Z,4968.00
2019-06-10T07:19:38.282Z,4980.00
2019-06-10T07:20:37.817Z,4972.00
2019-06-10T07:21:56.942Z,4976.00
2019-06-10T07:22:36.985Z,4976.00
2019-06-10T07:23:38.015Z,4984.00
2019-06-10T07:24:37.897Z,4988.00
2019-06-10T07:25:37.354Z,4976.00
2019-06-10T07:26:40.511Z,4996.00
2019-06-10T07:27:37.536Z,4988.00
2019-06-10T07:28:37.509Z,5008.00
2019-06-10T07:29:37.410Z,5012.00
2019-06-10T07:30:38.821Z,5020.00
2019-06-10T07:31:36.544Z,5028.00
2019-06-10T07:32:37.364Z,5036.00
2019-06-10T07:33:38.981Z,5028.00
2019-06-10T07:34:36.734Z,5012.00
2019-06-10T07:35:36.079Z,5016.00
2019-06-10T07:36:35.641Z,5040.00
2019-06-10T07:37:36.204Z,5060.00
2019-06-10T07:38:37.252Z,5080.00
2019-06-10T07:39:36.451Z,5100.00
2019-06-10T07:40:36.181Z,5104.00
2019-06-10T07:41:35.737Z,5108.00
2019-06-10T07:42:34.915Z,5108.00
2019-06-10T07:43:38.287Z,5116.00
2019-06-10T07:44:34.902Z,5132.00
2019-06-10T07:45:37.757Z,5140.00
2019-06-10T07:46:36.048Z,5148.00
2019-06-10T07:47:35.271Z,5160.00
2019-06-10T07:48:36.516Z,5152.00
2019-06-10T07:49:35.336Z,5172.00
2019-06-10T07:50:34.976Z,5180.00
2019-06-10T07:51:34.657Z,5188.00
2019-06-10T07:52:34.712Z,5176.00
2019-06-10T07:53:35.239Z,5180.00
2019-06-10T07:54:34.782Z,5184.00
2019-06-10T07:55:35.025Z,5176.00
2019-06-10T07:56:38.672Z,5188.00
2019-06-10T07:57:34.746Z,5188.00
2019-06-10T07:58:36.435Z,5188.00
2019-06-10T07:59:33.857Z,5192.00
2019-06-10T08:00:34.873Z,5188.00
2019-06-10T08:01:34.726Z,5176.00
2019-06-10T08:02:34.081Z,5180.00
2019-06-10T08:03:34.958Z,5188.00
2019-06-10T08:04:33.663Z,5192.00
2019-06-10T08:05:34.185Z,5184.00
2019-06-10T08:06:34.713Z,5196.00
2019-06-10T08:07:33.412Z,5196.00
2019-06-10T08:08:33.094Z,5204.00
2019-06-10T08:09:35.283Z,5200.00
2019-06-10T08:10:32.850Z,5200.00
2019-06-10T08:11:33.221Z,5204.00
2019-06-10T08:12:32.644Z,5208.00
2019-06-10T08:13:32.616Z,5192.00
2019-06-10T08:14:33.059Z,5176.00
2019-06-10T08:15:32.611Z,5180.00
2019-06-10T08:16:32.707Z,5192.00
2019-06-10T08:17:32.838Z,5184.00
2019-06-10T08:18:38.146Z,5184.00
2019-06-10T08:19:37.799Z,5192.00
2019-06-10T08:20:32.619Z,5180.00
2019-06-10T08:21:32.323Z,5180.00
2019-06-10T08:22:37.230Z,5180.00
2019-06-10T08:23:32.812Z,5172.00
2019-06-10T08:24:32.926Z,5160.00
2019-06-10T08:25:32.770Z,5164.00
2019-06-10T08:26:32.416Z,5160.00
2019-06-10T08:27:33.565Z,5156.00
2019-06-10T08:28:33.268Z,5156.00
2019-06-10T08:29:32.981Z,5152.00
2019-06-10T08:30:32.891Z,5168.00
2019-06-10T08:31:33.285Z,5160.00
2019-06-10T08:32:33.381Z,5160.00
2019-06-10T08:33:33.174Z,5160.00
2019-06-10T08:34:32.935Z,5152.00
2019-06-10T08:35:39.403Z,5144.00
2019-06-10T08:36:33.125Z,5128.00
2019-06-10T08:37:33.053Z,5116.00
2019-06-10T08:38:32.990Z,5276.00
2019-06-10T08:39:33.300Z,5120.00
2019-06-10T08:40:32.601Z,5100.00
2019-06-10T08:41:32.253Z,5100.00
2019-06-10T08:42:32.436Z,5092.00
2019-06-10T08:43:32.884Z,5068.00
2019-06-10T08:44:32.591Z,5068.00
2019-06-10T08:45:30.289Z,5064.00
2019-06-10T08:46:30.225Z,5056.00
2019-06-10T08:47:32.467Z,5048.00
2019-06-10T08:48:30.088Z,5036.00
2019-06-10T08:49:32.565Z,5020.00
2019-06-10T08:50:29.958Z,5028.00
2019-06-10T08:51:32.317Z,5020.00
2019-06-10T08:52:29.825Z,5012.00
2019-06-10T08:53:29.759Z,5012.00
2019-06-10T08:54:32.255Z,5028.00
2019-06-10T08:55:29.636Z,4996.00
2019-06-10T08:56:29.565Z,4972.00
2019-06-10T08:57:29.507Z,4980.00
2019-06-10T08:58:29.429Z,4976.00
2019-06-10T08:59:29.368Z,4964.00
2019-06-10T09:00:29.300Z,4960.00
2019-06-10T09:01:29.243Z,4968.00
2019-06-10T09:02:29.173Z,4940.00
2019-06-10T09:03:29.099Z,4940.00
2019-06-10T09:04:29.636Z,4888.00
2019-06-10T09:05:28.968Z,4904.00
2019-06-10T09:06:28.902Z,4912.00
2019-06-10T09:07:28.852Z,4892.00
2019-06-10T09:08:28.769Z,4896.00
2019-06-10T09:09:28.701Z,4884.00
2019-06-10T09:10:28.638Z,4860.00
2019-06-10T09:11:28.578Z,4800.00
2019-06-10T09:12:33.125Z,4876.00
2019-06-10T09:13:28.435Z,4884.00
2019-06-10T09:14:28.371Z,4860.00
2019-06-10T09:15:28.308Z,4840.00
2019-06-10T09:16:28.246Z,4836.00
2019-06-10T09:17:28.183Z,4836.00
2019-06-10T09:18:28.117Z,4820.00
2019-06-10T09:19:28.045Z,4832.00
2019-06-10T09:20:27.981Z,4828.00
2019-06-10T09:21:27.931Z,4812.00
2019-06-10T09:22:27.845Z,4792.00
2019-06-10T09:23:27.785Z,4764.00
2019-06-10T09:24:27.722Z,4792.00
2019-06-10T09:25:27.646Z,4796.00
2019-06-10T09:26:27.594Z,4780.00
2019-06-10T09:27:27.535Z,4860.00
2019-06-10T09:28:27.448Z,4892.00
2019-06-10T09:29:27.389Z,4888.00
2019-06-10T09:30:27.324Z,4960.00
2019-06-10T09:31:27.259Z,4848.00
2019-06-10T09:32:27.185Z,4944.00
2019-06-10T09:33:27.116Z,4944.00
2019-06-10T09:34:27.073Z,4960.00
2019-06-10T09:35:26.993Z,4912.00
2019-06-10T09:36:26.936Z,4712.00
2019-06-10T09:37:26.857Z,4948.00
2019-06-10T09:38:26.798Z,5064.00
2019-06-10T09:39:26.725Z,4856.00
2019-06-10T09:40:26.659Z,4860.00
2019-06-10T09:41:36.439Z,4740.00
2019-06-10T09:42:26.527Z,4644.00
2019-06-10T09:43:26.464Z,4644.00
2019-06-10T09:44:26.400Z,4528.00
2019-06-10T09:45:26.331Z,4592.00
2019-06-10T09:46:26.266Z,4680.00
2019-06-10T09:47:26.198Z,4552.00
2019-06-10T09:48:26.132Z,4320.00
2019-06-10T09:49:26.068Z,4240.00
2019-06-10T09:50:26.003Z,4348.00
2019-06-10T09:51:25.938Z,4448.00
2019-06-10T09:52:25.873Z,4264.00
2019-06-10T09:53:33.358Z,4360.00
2019-06-10T09:54:25.735Z,4484.00
2019-06-10T09:55:25.675Z,4496.00
2019-06-10T09:56:25.612Z,4500.00
2019-06-10T09:57:25.544Z,4540.00
2019-06-10T09:58:25.484Z,4544.00
2019-06-10T09:59:25.417Z,4496.00
2019-06-10T10:00:25.347Z,4440.00
2019-06-10T10:01:25.278Z,4460.00
2019-06-10T10:02:25.216Z,4372.00
2019-06-10T10:03:25.147Z,4304.00
2019-06-10T10:04:25.078Z,4296.00
2019-06-10T10:05:25.017Z,4172.00
2019-06-10T10:06:24.950Z,4224.00
2019-06-10T10:07:24.884Z,4192.00
2019-06-10T10:08:24.818Z,4192.00
2019-06-10T10:09:24.766Z,4236.00
2019-06-10T10:10:24.686Z,4188.00
2019-06-10T10:11:28.379Z,4144.00
2019-06-10T10:12:24.555Z,4200.00
2019-06-10T10:13:24.490Z,4156.00
2019-06-10T10:14:24.424Z,4116.00
2019-06-10T10:15:30.949Z,4096.00
2019-06-10T10:16:24.289Z,4072.00
2019-06-10T10:17:24.224Z,4040.00
2019-06-10T10:18:24.158Z,4024.00
2019-06-10T10:19:24.089Z,4024.00
2019-06-10T10:20:24.027Z,4004.00
2019-06-10T10:21:23.960Z,3988.00
2019-06-10T10:22:23.890Z,3968.00
2019-06-10T10:23:23.861Z,3940.00
2019-06-10T10:24:23.763Z,3920.00
2019-06-10T10:25:23.698Z,3908.00
2019-06-10T10:26:23.630Z,3892.00
2019-06-10T10:27:23.565Z,3868.00
2019-06-10T10:28:26.357Z,3856.00
2019-06-10T10:29:23.433Z,3840.00
2019-06-10T10:30:24.565Z,3820.00
2019-06-10T10:31:24.094Z,3804.00
2019-06-10T10:32:23.346Z,3780.00
2019-06-10T10:33:28.910Z,3768.00
2019-06-10T10:34:23.764Z,3744.00
2019-06-10T10:35:24.269Z,3728.00
2019-06-10T10:36:22.972Z,3704.00
2019-06-10T10:37:23.050Z,3684.00
2019-06-10T10:38:23.113Z,3680.00
2019-06-10T10:39:24.670Z,3656.00
2019-06-10T10:40:23.346Z,3644.00
2019-06-10T10:41:23.429Z,3628.00
2019-06-10T10:42:23.601Z,3608.00
2019-06-10T10:43:32.052Z,3588.00
2019-06-10T10:44:22.442Z,3572.00
2019-06-10T10:45:22.776Z,3552.00
2019-06-10T10:46:23.091Z,3528.00
2019-06-10T10:47:25.187Z,3508.00
2019-06-10T10:48:22.666Z,3488.00
2019-06-10T10:49:22.372Z,3472.00
2019-06-10T10:50:22.575Z,3460.00
2019-06-10T10:51:23.070Z,3444.00
2019-06-10T10:52:22.459Z,3436.00
2019-06-10T10:53:23.847Z,3420.00
2019-06-10T10:54:32.164Z,3416.00
2019-06-10T10:55:22.295Z,3408.00
2019-06-10T10:56:22.308Z,3396.00
2019-06-10T10:57:23.149Z,3388.00
2019-06-10T10:58:22.925Z,3376.00
2019-06-10T10:59:22.017Z,3368.00
2019-06-10T11:00:22.647Z,3352.00
2019-06-10T11:01:23.646Z,3332.00
2019-06-10T11:02:22.735Z,3324.00
2019-06-10T11:03:22.857Z,3308.00
2019-06-10T11:04:23.158Z,3292.00
2019-06-10T11:05:23.154Z,3268.00
2019-06-10T11:06:23.202Z,3236.00
2019-06-10T11:07:22.354Z,3180.00
2019-06-10T11:08:22.789Z,3140.00
2019-06-10T11:09:22.383Z,3088.00
2019-06-10T11:10:23.054Z,3052.00
2019-06-10T11:11:22.829Z,3028.00
2019-06-10T11:12:22.945Z,2992.00
2019-06-10T11:13:22.266Z,2948.00
2019-06-10T11:14:22.882Z,2948.00
2019-06-10T11:15:20.397Z,2952.00
2019-06-10T11:16:22.371Z,2960.00
2019-06-10T11:17:22.195Z,2940.00
2019-06-10T11:18:22.341Z,2928.00
2019-06-10T11:19:22.115Z,2916.00
2019-06-10T11:20:22.461Z,2904.00
2019-06-10T11:21:22.710Z,2884.00
2019-06-10T11:22:22.900Z,2864.00
2019-06-10T11:23:19.871Z,2844.00
2019-06-10T11:24:33.565Z,2816.00
2019-06-10T11:25:19.734Z,2808.00
2019-06-10T11:26:19.666Z,2800.00
2019-06-10T11:27:19.604Z,2788.00
2019-06-10T17:03:23.302Z,2792.00
2019-06-10T17:04:21.718Z,2736.00
2019-06-10T17:06:15.455Z,2500.00
2019-06-10T17:07:15.371Z,2352.00
2019-06-10T17:09:10.632Z,2312.00
2019-06-10T17:10:12.567Z,2468.00
2019-06-10T17:12:06.635Z,2536.00
2019-06-10T17:13:06.568Z,2568.00
2019-06-10T17:15:03.475Z,2128.00
2019-06-10T17:16:03.501Z,2096.00
2019-06-10T17:17:56.986Z,1984.00
2019-06-10T17:18:56.909Z,1904.00
2019-06-10T17:20:53.508Z,1784.00
2019-06-10T17:21:52.759Z,1752.00
2019-06-10T17:23:47.381Z,1640.00
2019-06-10T17:24:47.294Z,1672.00
2019-06-10T17:26:42.748Z,1600.00
2019-06-10T17:27:42.473Z,1660.00
2019-06-10T17:29:37.754Z,1676.00
2019-06-10T17:30:37.672Z,1724.00
2019-06-10T17:32:33.015Z,1784.00
2019-06-10T17:33:35.679Z,1736.00
2019-06-10T17:35:28.634Z,1700.00
2019-06-10T17:36:30.851Z,1704.00
2019-06-10T17:38:24.629Z,1572.00
2019-06-10T17:39:25.094Z,1536.00
2019-06-10T17:41:18.550Z,1640.00
2019-06-10T17:42:18.469Z,1620.00
2019-06-10T17:44:13.776Z,1496.00
2019-06-10T17:45:13.676Z,1460.00
2019-06-10T17:47:08.976Z,1324.00
2019-06-10T17:48:08.894Z,1364.00
2019-06-10T17:50:04.185Z,1472.00
2019-06-10T17:51:04.119Z,1424.00
2019-06-10T17:52:59.385Z,1260.00
2019-06-10T17:53:59.281Z,1204.00
2019-06-10T17:55:54.589Z,1196.00
2019-06-10T17:56:54.475Z,1160.00
2019-06-10T17:58:54.938Z,1076.00
2019-06-10T17:59:49.669Z,1032.00
2019-06-10T18:01:44.973Z,932.00
2019-06-10T18:02:44.868Z,908.00
2019-06-10T18:04:42.073Z,796.00
2019-06-10T18:05:42.394Z,744.00
2019-06-10T18:07:35.795Z,652.00
2019-06-10T18:08:36.600Z,616.00
2019-06-10T18:10:33.126Z,596.00
2019-06-10T18:11:32.831Z,580.00
2019-06-10T18:13:26.264Z,548.00
2019-06-10T18:14:25.933Z,532.00
2019-06-10T18:16:22.809Z,496.00
2019-06-10T18:17:20.856Z,488.00
2019-06-10T18:19:16.159Z,464.00
2019-06-10T18:20:16.059Z,444.00
2019-06-10T18:22:14.838Z,420.00
2019-06-10T18:23:14.753Z,412.00
2019-06-10T18:24:14.694Z,400.00
2019-06-10T18:25:14.618Z,380.00
2019-06-10T18:26:14.554Z,364.00
2019-06-10T18:27:14.488Z,352.00
2019-06-10T18:28:14.432Z,332.00
2019-06-10T18:29:14.353Z,312.00
2019-06-10T18:30:14.585Z,296.00
2019-06-10T18:31:14.227Z,288.00
2019-06-10T18:32:14.155Z,276.00
2019-06-10T18:33:14.086Z,272.00
2019-06-10T18:34:14.022Z,276.00
2019-06-10T18:35:14.381Z,268.00
2019-06-10T18:36:13.886Z,260.00
2019-06-10T18:37:13.823Z,256.00
2019-06-10T18:38:13.754Z,260.00
2019-06-10T18:39:13.683Z,260.00
2019-06-10T18:40:14.613Z,256.00
2019-06-10T18:41:13.553Z,248.00
2019-06-10T18:42:13.486Z,236.00
2019-06-10T18:43:13.423Z,228.00
2019-06-10T18:44:22.609Z,228.00
2019-06-10T18:45:13.283Z,220.00
2019-06-10T18:46:13.220Z,216.00
2019-06-10T18:47:13.488Z,208.00
2019-06-10T18:48:13.082Z,200.00
2019-06-10T18:49:13.485Z,200.00
2019-06-10T18:50:12.953Z,200.00
2019-06-10T18:51:12.879Z,196.00
2019-06-10T18:52:12.909Z,188.00
2019-06-10T18:53:13.022Z,188.00
2019-06-10T18:54:12.895Z,192.00
2019-06-10T18:55:12.615Z,196.00